Time;durP1;ratioP1;P1;durP2;ratioP2;P2;SDS_P1;SDS_P2;PMS_P1;PMS_P2;Temp;Humidity;BMP_temperature;BMP_pressure;BME280_temperature;BME280_humidity;BME280_pressure;Samples;Min_cycle;Max_cycle;Signal;HPM_P1;HPM_P2
2022/03/09 00:00:58;;;;;;;67.55;52.13;;;16.60;46.00;;;;;;4912638;28;90052;-71
2022/03/09 00:03:24;;;;;;;68.22;52.50;;;16.60;45.50;;;;;;4929705;28;91447;-71
2022/03/09 00:05:49;;;;;;;66.20;52.20;;;16.70;45.50;;;;;;4914511;28;92335;-71
2022/03/09 00:08:15;;;;;;;66.40;51.72;;;16.70;45.50;;;;;;4906216;28;90692;-71
2022/03/09 00:10:40;;;;;;;65.60;51.72;;;16.80;45.20;;;;;;4908996;28;89996;-71
2022/03/09 00:13:06;;;;;;;68.15;52.15;;;16.80;45.10;;;;;;4909867;28;95881;-71
2022/03/09 00:15:32;;;;;;;65.70;51.22;;;16.80;45.00;;;;;;4909685;28;92822;-71
2022/03/09 00:17:57;;;;;;;66.45;51.88;;;16.80;45.00;;;;;;4912072;28;90376;-71
2022/03/09 00:20:23;;;;;;;67.13;51.92;;;16.90;45.20;;;;;;4906799;28;89858;-71
2022/03/09 00:22:49;;;;;;;65.00;51.40;;;16.90;45.20;;;;;;4916552;28;90218;-71
2022/03/09 00:25:14;;;;;;;66.18;51.55;;;16.90;44.90;;;;;;4916583;28;89820;-71
2022/03/09 00:27:40;;;;;;;66.13;51.88;;;16.90;45.10;;;;;;4914559;28;89903;-71
2022/03/09 00:30:06;;;;;;;68.30;52.58;;;16.90;44.80;;;;;;4921814;28;89564;-71
2022/03/09 00:32:32;;;;;;;66.75;52.17;;;16.90;45.00;;;;;;4910669;28;91095;-71
2022/03/09 00:34:58;;;;;;;68.00;52.63;;;16.90;44.70;;;;;;4914981;28;91297;-71
2022/03/09 00:37:23;;;;;;;66.68;51.47;;;16.90;45.10;;;;;;4913792;28;90837;-71
2022/03/09 00:39:49;;;;;;;64.85;51.00;;;16.90;44.70;;;;;;4907395;28;89897;-71
2022/03/09 00:42:14;;;;;;;65.25;51.28;;;16.90;44.80;;;;;;4917485;28;92660;-71
2022/03/09 00:44:40;;;;;;;66.38;51.90;;;16.80;44.70;;;;;;4913071;28;90279;-71
2022/03/09 00:47:06;;;;;;;64.88;51.05;;;16.80;44.70;;;;;;4921874;28;89675;-71
2022/03/09 00:49:31;;;;;;;65.22;51.05;;;16.80;44.50;;;;;;4920697;28;89366;-71
2022/03/09 00:51:57;;;;;;;66.25;52.13;;;16.70;45.00;;;;;;4918404;28;97143;-71
2022/03/09 00:54:23;;;;;;;65.53;50.40;;;16.70;44.80;;;;;;4919696;28;89668;-71
2022/03/09 00:56:48;;;;;;;67.43;51.33;;;16.70;44.90;;;;;;4913805;28;89883;-71
2022/03/09 00:59:14;;;;;;;64.53;50.88;;;16.60;45.00;;;;;;4914859;28;89856;-71
2022/03/09 01:01:39;;;;;;;67.38;52.13;;;16.60;44.90;;;;;;4908405;28;97455;-71
2022/03/09 01:04:05;;;;;;;65.82;51.15;;;16.50;45.10;;;;;;4915440;28;90377;-71
2022/03/09 01:06:31;;;;;;;64.93;51.05;;;16.50;45.10;;;;;;4910523;28;90085;-71
2022/03/09 01:08:57;;;;;;;65.63;51.03;;;16.50;45.20;;;;;;4908844;28;90021;-71
2022/03/09 01:11:23;;;;;;;65.05;51.15;;;16.40;45.20;;;;;;4913234;28;90704;-71
2022/03/09 01:13:49;;;;;;;65.95;51.50;;;16.40;45.20;;;;;;4911969;28;90223;-71
2022/03/09 01:16:15;;;;;;;65.65;51.03;;;16.40;45.50;;;;;;4921004;28;90637;-71
2022/03/09 01:18:40;;;;;;;65.25;51.00;;;16.30;46.10;;;;;;4904890;28;89116;-71
2022/03/09 01:21:06;;;;;;;64.05;50.22;;;16.30;45.40;;;;;;4916245;28;94810;-71
2022/03/09 01:23:32;;;;;;;65.18;51.22;;;16.30;45.50;;;;;;4917905;28;89438;-71
2022/03/09 01:25:58;;;;;;;66.10;51.20;;;16.30;45.50;;;;;;4910192;28;90921;-71
2022/03/09 01:28:24;;;;;;;65.28;51.10;;;16.30;45.50;;;;;;4907594;28;90944;-71
2022/03/09 01:30:49;;;;;;;65.45;51.28;;;16.20;45.20;;;;;;4912220;28;91855;-72
2022/03/09 01:33:15;;;;;;;65.13;50.60;;;16.10;45.70;;;;;;4914208;28;90116;-71
2022/03/09 01:35:42;;;;;;;65.97;51.25;;;16.20;45.80;;;;;;4915530;28;89997;-71
2022/03/09 01:38:07;;;;;;;67.10;51.97;;;16.20;45.70;;;;;;4911707;28;90540;-71
2022/03/09 01:40:33;;;;;;;65.38;51.15;;;16.20;46.30;;;;;;4903236;28;91162;-71
2022/03/09 01:42:58;;;;;;;65.18;51.15;;;16.20;45.60;;;;;;4915462;28;92159;-71
2022/03/09 01:45:25;;;;;;;66.35;50.95;;;16.20;45.40;;;;;;4914982;28;92800;-71
2022/03/09 01:47:51;;;;;;;67.37;51.93;;;16.30;45.50;;;;;;4928259;28;90139;-71
2022/03/09 01:50:17;;;;;;;65.57;51.03;;;16.30;45.60;;;;;;4917037;28;93767;-71
2022/03/09 01:52:43;;;;;;;65.15;51.35;;;16.30;45.40;;;;;;4913775;28;91922;-71
2022/03/09 01:55:09;;;;;;;65.45;50.80;;;16.30;45.20;;;;;;4917219;28;89794;-71
2022/03/09 01:57:35;;;;;;;65.18;51.22;;;16.30;45.50;;;;;;4921535;28;90073;-71
2022/03/09 02:00:02;;;;;;;65.43;51.53;;;16.30;45.40;;;;;;4914507;28;94532;-71
2022/03/09 02:02:28;;;;;;;65.32;51.05;;;16.30;45.10;;;;;;4923200;28;92203;-71
2022/03/09 02:04:53;;;;;;;65.88;51.45;;;16.30;45.20;;;;;;4918003;28;90567;-71
2022/03/09 02:09:41;;;;;;;64.93;50.75;;;16.30;45.30;;;;;;4915358;28;88865;-71
2022/03/09 02:10:06;;;;;;;66.03;51.63;;;16.30;45.40;;;;;;4908467;28;91020;-71
2022/03/09 02:12:32;;;;;;;65.20;50.85;;;16.20;45.30;;;;;;4914679;28;90641;-71
2022/03/09 02:14:57;;;;;;;65.60;50.75;;;16.20;45.50;;;;;;4915869;28;92353;-71
2022/03/09 02:17:27;;;;;;;65.45;50.80;;;16.10;45.50;;;;;;4928231;28;90568;-71
2022/03/09 02:19:54;;;;;;;65.00;50.78;;;16.10;45.40;;;;;;4926486;28;93840;-71
2022/03/09 02:22:19;;;;;;;66.45;51.95;;;16.10;45.30;;;;;;4917298;28;90286;-71
2022/03/09 02:24:51;;;;;;;65.38;51.33;;;16.10;45.40;;;;;;4920376;28;90502;-71
2022/03/09 02:27:17;;;;;;;;;;;16.10;45.50;;;;;;4912051;28;89789;-71
2022/03/09 02:29:43;;;;;;;65.50;51.05;;;16.10;45.70;;;;;;4913887;28;90296;-71
2022/03/09 02:32:09;;;;;;;64.40;50.65;;;16.10;45.80;;;;;;4916230;28;90947;-71
2022/03/09 02:34:35;;;;;;;68.10;51.80;;;16.10;45.70;;;;;;4916987;28;90681;-71
2022/03/09 02:37:01;;;;;;;66.10;51.50;;;16.10;45.80;;;;;;4913904;28;89833;-71
2022/03/09 02:39:26;;;;;;;65.72;51.55;;;16.10;45.60;;;;;;4906671;28;91186;-71
2022/03/09 02:41:52;;;;;;;66.80;52.00;;;16.10;45.60;;;;;;4916148;28;90521;-71
2022/03/09 02:44:20;;;;;;;66.18;52.00;;;16.20;45.70;;;;;;4915839;28;90556;-71
2022/03/09 02:46:45;;;;;;;66.75;51.35;;;16.20;45.50;;;;;;4910815;28;90842;-71
2022/03/09 02:49:11;;;;;;;64.90;50.88;;;16.20;45.30;;;;;;4915531;28;91139;-71
2022/03/09 02:51:37;;;;;;;65.65;51.25;;;16.30;45.10;;;;;;4915184;28;93812;-71
2022/03/09 02:54:03;;;;;;;65.78;51.72;;;16.30;45.30;;;;;;4915503;28;91909;-71
2022/03/09 02:56:28;;;;;;;65.85;51.55;;;16.30;45.00;;;;;;4916172;28;91054;-71
2022/03/09 02:58:54;;;;;;;65.53;50.97;;;16.30;45.30;;;;;;4916927;28;92651;-71
2022/03/09 03:01:19;;;;;;;67.60;51.67;;;16.30;45.10;;;;;;4911408;28;91169;-71
2022/03/09 03:03:45;;;;;;;67.20;51.35;;;16.30;45.20;;;;;;4914407;28;90912;-71
2022/03/09 03:06:12;;;;;;;64.25;50.72;;;16.20;45.20;;;;;;4910772;28;93320;-71
2022/03/09 03:08:38;;;;;;;66.22;51.08;;;16.30;45.10;;;;;;4916663;28;89822;-70
2022/03/09 03:11:06;;;;;;;64.47;50.53;;;16.20;45.20;;;;;;4907188;28;91501;-71
2022/03/09 03:13:31;;;;;;;65.60;51.42;;;16.20;45.00;;;;;;4912964;28;90238;-71
2022/03/09 03:15:57;;;;;;;64.53;50.63;;;16.20;45.20;;;;;;4910634;28;92278;-71
2022/03/09 03:18:23;;;;;;;65.32;51.25;;;16.20;45.10;;;;;;4912706;28;90215;-71
2022/03/09 03:20:54;;;;;;;66.50;52.03;;;16.10;45.40;;;;;;4905838;28;93557;-71
2022/03/09 03:23:23;;;;;;;64.32;50.80;;;16.10;45.50;;;;;;4920227;28;89666;-71
2022/03/09 03:25:53;;;;;;;64.97;51.13;;;16.10;45.10;;;;;;4906458;28;90524;-71
2022/03/09 03:28:20;;;;;;;65.43;51.13;;;16.20;45.50;;;;;;4912250;28;91861;-71
2022/03/09 03:30:46;;;;;;;66.70;51.45;;;16.20;45.20;;;;;;4909932;28;90691;-71
2022/03/09 03:33:13;;;;;;;65.50;51.88;;;16.20;45.40;;;;;;4913979;28;89709;-71
2022/03/09 03:35:40;;;;;;;65.15;51.25;;;16.30;45.40;;;;;;4914738;28;89907;-71
2022/03/09 03:38:06;;;;;;;64.00;50.13;;;16.30;45.40;;;;;;4917200;28;90364;-71
2022/03/09 03:40:31;;;;;;;64.68;50.95;;;16.30;45.30;;;;;;4907067;28;92598;-71
2022/03/09 03:42:57;;;;;;;66.13;51.22;;;16.30;45.10;;;;;;4926214;28;90070;-71
2022/03/09 03:45:23;;;;;;;64.57;50.97;;;16.30;44.90;;;;;;4912717;28;89161;-71
2022/03/09 03:47:48;;;;;;;66.15;51.35;;;16.40;45.10;;;;;;4915091;28;89658;-71
2022/03/09 03:50:14;;;;;;;66.75;51.05;;;16.40;44.90;;;;;;4914582;28;91182;-71
2022/03/09 03:52:40;;;;;;;65.30;50.88;;;16.40;45.00;;;;;;4914288;28;90993;-71
2022/03/09 03:55:06;;;;;;;64.90;50.75;;;16.40;45.10;;;;;;4915183;28;89896;-71
2022/03/09 03:57:31;;;;;;;64.97;50.67;;;16.40;45.00;;;;;;4909234;28;89984;-71
2022/03/09 03:59:57;;;;;;;64.32;49.92;;;16.40;45.00;;;;;;4911790;28;89768;-71
2022/03/09 04:02:22;;;;;;;64.82;50.20;;;16.40;45.10;;;;;;4916789;28;91366;-71
2022/03/09 04:04:50;;;;;;;64.88;50.88;;;16.40;44.90;;;;;;4908037;28;91458;-71
2022/03/09 04:07:16;;;;;;;65.32;51.00;;;16.40;44.80;;;;;;4913736;28;90513;-71
2022/03/09 04:09:42;;;;;;;65.18;51.13;;;16.40;44.70;;;;;;4903555;28;91051;-71
2022/03/09 04:12:08;;;;;;;64.63;50.63;;;16.40;45.00;;;;;;4910258;28;89695;-71
2022/03/09 04:14:34;;;;;;;66.45;51.58;;;16.30;44.70;;;;;;4931550;28;89858;-71
2022/03/09 04:16:59;;;;;;;64.85;51.03;;;16.30;44.90;;;;;;4929356;28;94409;-71
2022/03/09 04:19:25;;;;;;;63.97;50.40;;;16.30;44.80;;;;;;4910409;28;90712;-71
2022/03/09 04:21:51;;;;;;;63.50;50.28;;;16.30;45.10;;;;;;4913059;28;90044;-71
2022/03/09 04:24:16;;;;;;;66.13;51.05;;;16.30;44.90;;;;;;4914818;28;90368;-71
2022/03/09 04:26:42;;;;;;;63.40;50.75;;;16.40;45.00;;;;;;4914274;28;90292;-71
2022/03/09 04:29:08;;;;;;;65.85;50.95;;;16.40;44.70;;;;;;4913309;28;90373;-71
2022/03/09 04:31:33;;;;;;;63.78;49.70;;;16.40;45.10;;;;;;4914913;28;89596;-71
2022/03/09 04:33:59;;;;;;;64.68;51.25;;;16.40;44.70;;;;;;4917135;28;89762;-71
2022/03/09 04:36:25;;;;;;;65.50;51.38;;;16.40;44.70;;;;;;4913925;28;89897;-71
2022/03/09 04:38:50;;;;;;;64.60;50.75;;;16.40;44.70;;;;;;4912166;28;90787;-71
2022/03/09 04:41:16;;;;;;;64.40;50.72;;;16.40;44.60;;;;;;4904262;28;90952;-71
2022/03/09 04:43:41;;;;;;;65.60;50.72;;;16.50;44.80;;;;;;4913560;28;89925;-71
2022/03/09 04:46:07;;;;;;;64.57;50.42;;;16.40;44.60;;;;;;4918214;28;92022;-71
2022/03/09 04:48:33;;;;;;;64.53;50.45;;;16.40;44.70;;;;;;4919967;28;90952;-71
2022/03/09 04:51:02;;;;;;;64.03;50.45;;;16.40;44.70;;;;;;4911221;28;89394;-72
2022/03/09 04:53:28;;;;;;;65.68;50.92;;;16.40;44.70;;;;;;4914733;28;90233;-71
2022/03/09 04:55:54;;;;;;;66.03;51.53;;;16.40;44.60;;;;;;4912732;28;90150;-71
2022/03/09 04:58:20;;;;;;;64.03;50.78;;;16.40;44.80;;;;;;4912882;28;89642;-71
2022/03/09 05:00:45;;;;;;;64.63;50.88;;;16.40;45.00;;;;;;4911119;28;93239;-71
2022/03/09 05:03:11;;;;;;;65.20;51.03;;;16.40;44.80;;;;;;4916127;28;90916;-72
2022/03/09 05:05:36;;;;;;;65.30;50.90;;;16.50;44.70;;;;;;4907267;28;93761;-71
2022/03/09 05:08:02;;;;;;;65.22;50.80;;;16.50;44.80;;;;;;4911898;28;96901;-71
2022/03/09 05:10:28;;;;;;;65.85;51.03;;;16.60;44.70;;;;;;4903177;28;90214;-71
2022/03/09 05:12:53;;;;;;;63.63;50.47;;;16.60;44.70;;;;;;4919916;28;90918;-72
2022/03/09 05:15:19;;;;;;;64.65;50.40;;;16.70;44.80;;;;;;4916463;28;93302;-71
2022/03/09 05:17:45;;;;;;;66.47;51.58;;;16.70;44.80;;;;;;4908861;28;90719;-71
2022/03/09 05:20:12;;;;;;;64.40;50.78;;;16.80;44.80;;;;;;4914471;28;89777;-71
2022/03/09 05:22:38;;;;;;;67.75;51.95;;;16.80;44.70;;;;;;4920287;28;88844;-71
2022/03/09 05:25:06;;;;;;;66.75;51.35;;;16.90;44.60;;;;;;4916991;28;90318;-72
2022/03/09 05:27:32;;;;;;;68.07;51.40;;;16.90;44.60;;;;;;4915579;28;92720;-71
2022/03/09 05:29:58;;;;;;;66.05;51.13;;;17.00;44.40;;;;;;4911316;28;91543;-71
2022/03/09 05:32:23;;;;;;;64.40;50.78;;;17.10;44.50;;;;;;4916538;28;90476;-71
2022/03/09 05:34:50;;;;;;;65.63;50.72;;;17.10;44.40;;;;;;4905881;28;91265;-71
2022/03/09 05:37:17;;;;;;;66.57;51.70;;;17.20;44.40;;;;;;4911541;28;91437;-71
2022/03/09 05:39:43;;;;;;;66.53;50.70;;;17.20;44.40;;;;;;4912751;28;90982;-71
2022/03/09 05:42:09;;;;;;;66.03;51.47;;;17.20;44.40;;;;;;4908842;28;90041;-72
2022/03/09 05:44:35;;;;;;;68.53;51.63;;;17.30;44.20;;;;;;4914845;28;90171;-72
2022/03/09 05:47:00;;;;;;;67.85;51.58;;;17.30;44.20;;;;;;4913769;28;90196;-71
2022/03/09 05:49:26;;;;;;;65.35;51.13;;;17.40;44.10;;;;;;4915390;28;91797;-72
2022/03/09 05:51:54;;;;;;;67.88;51.97;;;17.40;44.10;;;;;;4920893;28;89552;-72
2022/03/09 05:54:20;;;;;;;65.50;50.90;;;17.50;44.10;;;;;;4916333;28;90881;-68
2022/03/09 05:56:47;;;;;;;66.53;51.67;;;17.50;43.80;;;;;;4905259;28;92900;-69
2022/03/09 05:59:13;;;;;;;66.85;50.88;;;17.50;43.70;;;;;;4915741;28;90506;-69
2022/03/09 06:01:38;;;;;;;65.55;51.00;;;17.50;43.80;;;;;;4903651;28;89974;-67
2022/03/09 06:04:05;;;;;;;65.75;50.70;;;17.60;43.90;;;;;;4908908;28;96272;-69
2022/03/09 06:06:31;;;;;;;65.85;51.13;;;17.60;43.90;;;;;;4908855;28;90725;-71
2022/03/09 06:08:57;;;;;;;69.00;51.10;;;17.70;44.00;;;;;;4925809;28;91088;-70
2022/03/09 06:11:23;;;;;;;66.72;50.95;;;17.70;44.00;;;;;;4901994;28;89189;-70
2022/03/09 06:13:48;;;;;;;66.63;50.80;;;17.70;43.90;;;;;;4923775;28;96079;-70
2022/03/09 06:16:14;;;;;;;65.72;51.03;;;17.70;43.80;;;;;;4905681;28;90679;-71
2022/03/09 06:18:40;;;;;;;66.82;51.28;;;17.80;43.80;;;;;;4906509;28;91763;-69
2022/03/09 06:21:15;;;;;;;67.13;51.75;;;17.80;43.80;;;;;;4896905;28;90059;-69
2022/03/09 06:23:41;;;;;;;66.15;50.83;;;17.90;43.80;;;;;;4907953;28;91237;-70
2022/03/09 06:26:07;;;;;;;66.55;50.80;;;17.90;43.70;;;;;;4903726;28;90852;-70
2022/03/09 06:28:33;;;;;;;68.05;51.13;;;17.90;43.60;;;;;;4911677;28;89841;-69
2022/03/09 06:30:59;;;;;;;66.95;51.28;;;18.00;43.70;;;;;;4907695;28;90516;-71
2022/03/09 06:33:25;;;;;;;69.43;50.47;;;18.00;43.70;;;;;;4901773;28;91105;-71
2022/03/09 06:35:50;;;;;;;69.22;51.67;;;18.00;44.10;;;;;;4896763;28;90934;-72
2022/03/09 06:38:16;;;;;;;75.45;52.60;;;18.10;44.40;;;;;;4906601;28;95023;-73
2022/03/09 06:40:43;;;;;;;79.97;53.17;;;18.20;44.70;;;;;;4914655;28;90056;-71
2022/03/09 06:43:18;;;;;;;76.90;53.20;;;18.20;44.60;;;;;;4921154;28;92823;-70
2022/03/09 06:45:44;;;;;;;87.53;55.40;;;18.20;44.40;;;;;;4917489;28;91243;-72
2022/03/09 06:48:10;;;;;;;97.50;55.83;;;18.30;44.00;;;;;;4923364;28;91472;-71
2022/03/09 06:50:36;;;;;;;87.18;55.70;;;18.30;43.80;;;;;;4902105;28;90584;-73
2022/03/09 06:53:04;;;;;;;93.07;56.72;;;18.30;43.40;;;;;;4914439;28;96377;-71
2022/03/09 06:55:30;;;;;;;88.25;56.33;;;18.40;43.10;;;;;;4928597;28;91278;-70
2022/03/09 06:57:55;;;;;;;92.85;57.35;;;18.40;42.70;;;;;;4882270;28;91738;-73
2022/03/09 07:00:21;;;;;;;91.95;57.95;;;18.40;42.40;;;;;;4905907;28;89174;-73
2022/03/09 07:02:47;;;;;;;91.88;57.38;;;18.40;42.10;;;;;;4912753;28;90379;-73
2022/03/09 07:05:13;;;;;;;88.32;57.40;;;18.50;42.00;;;;;;4908221;28;97707;-68
2022/03/09 07:07:40;;;;;;;96.85;57.70;;;18.40;41.80;;;;;;4899775;28;92050;-68
2022/03/09 07:10:10;;;;;;;96.43;57.38;;;18.50;41.70;;;;;;4902776;28;91297;-68
2022/03/09 07:12:38;;;;;;;86.20;57.05;;;18.40;41.70;;;;;;4885526;28;92018;-72
2022/03/09 07:15:04;;;;;;;88.13;56.40;;;18.60;42.10;;;;;;4906787;28;89908;-72
2022/03/09 07:17:33;;;;;;;89.28;57.17;;;18.70;42.40;;;;;;4898439;28;91571;-72
2022/03/09 07:19:58;;;;;;;86.03;56.55;;;18.70;42.30;;;;;;4908715;28;90091;-73
2022/03/09 07:22:24;;;;;;;84.45;56.00;;;18.80;42.50;;;;;;4905767;28;91206;-72
2022/03/09 07:24:50;;;;;;;83.95;55.80;;;18.90;42.60;;;;;;4914457;28;89652;-72
2022/03/09 07:27:15;;;;;;;80.70;54.85;;;18.90;42.70;;;;;;4905925;28;89939;-72
2022/03/09 07:29:41;;;;;;;85.10;55.72;;;19.00;42.80;;;;;;4909354;28;89759;-73
2022/03/09 07:32:08;;;;;;;79.88;55.45;;;19.10;42.90;;;;;;4902493;28;91462;-72
2022/03/09 07:34:34;;;;;;;88.28;55.33;;;19.20;43.00;;;;;;4905156;28;91486;-72
2022/03/09 07:37:00;;;;;;;79.32;55.25;;;19.20;42.80;;;;;;4898966;28;91698;-71
2022/03/09 07:39:27;;;;;;;80.93;55.55;;;19.30;43.00;;;;;;4905080;28;90355;-72
2022/03/09 07:41:55;;;;;;;79.55;54.85;;;19.40;43.10;;;;;;4897875;28;90405;-72
2022/03/09 07:44:21;;;;;;;82.03;54.95;;;19.50;43.00;;;;;;4905686;28;92475;-72
2022/03/09 07:46:47;;;;;;;80.68;55.22;;;19.60;42.90;;;;;;4920475;28;89920;-73
2022/03/09 07:49:13;;;;;;;79.60;55.28;;;19.70;42.70;;;;;;4903071;28;88747;-73
2022/03/09 07:51:39;;;;;;;83.88;55.60;;;19.80;42.70;;;;;;4903233;28;90577;-72
2022/03/09 07:54:04;;;;;;;85.28;55.85;;;19.80;42.30;;;;;;4927030;28;91396;-73
2022/03/09 07:56:31;;;;;;;83.38;55.45;;;19.90;42.00;;;;;;4907838;28;90812;-74
2022/03/09 07:58:56;;;;;;;80.40;55.53;;;19.90;42.00;;;;;;4914742;28;90702;-74
2022/03/09 08:01:22;;;;;;;77.80;54.53;;;19.90;42.00;;;;;;4919056;28;90868;-74
2022/03/09 08:03:48;;;;;;;79.40;55.10;;;19.90;41.90;;;;;;4909244;28;89849;-74
2022/03/09 08:06:14;;;;;;;81.43;54.95;;;20.00;41.90;;;;;;4909083;28;90052;-73
2022/03/09 08:08:40;;;;;;;81.78;55.55;;;20.00;41.90;;;;;;4908018;28;92396;-73
2022/03/09 08:11:05;;;;;;;79.38;55.25;;;20.00;42.00;;;;;;4899056;28;90992;-72
2022/03/09 08:13:31;;;;;;;82.25;55.17;;;20.00;41.80;;;;;;4904583;28;91124;-72
2022/03/09 08:15:56;;;;;;;78.88;55.38;;;20.00;41.60;;;;;;4912702;28;91620;-72
2022/03/09 08:18:22;;;;;;;80.68;55.78;;;20.00;41.20;;;;;;4905606;28;93984;-72
2022/03/09 08:20:48;;;;;;;77.78;54.92;;;20.00;41.40;;;;;;4902122;28;92505;-73
2022/03/09 08:23:13;;;;;;;79.70;55.55;;;20.00;41.50;;;;;;4903962;28;91775;-72
2022/03/09 08:25:40;;;;;;;77.88;55.05;;;20.00;41.60;;;;;;4911903;28;94140;-73
2022/03/09 08:28:05;;;;;;;77.78;55.28;;;20.00;41.60;;;;;;4907501;28;91769;-72
2022/03/09 08:30:31;;;;;;;78.72;54.50;;;20.00;41.70;;;;;;4906289;28;92235;-72
2022/03/09 08:32:57;;;;;;;79.55;54.60;;;20.00;41.90;;;;;;4906905;28;90003;-73
2022/03/09 08:35:22;;;;;;;76.57;54.58;;;20.00;42.00;;;;;;4902779;28;95037;-72
2022/03/09 08:37:48;;;;;;;78.00;55.25;;;20.00;42.10;;;;;;4902369;28;90773;-71
2022/03/09 08:40:14;;;;;;;77.95;54.95;;;20.00;42.30;;;;;;4895707;28;90007;-72
2022/03/09 08:42:40;;;;;;;77.78;54.90;;;20.00;42.20;;;;;;4897663;28;94264;-72
2022/03/09 08:45:06;;;;;;;75.63;53.92;;;19.90;42.20;;;;;;4905959;28;92092;-73
2022/03/09 08:47:31;;;;;;;76.57;54.53;;;20.00;42.30;;;;;;4912617;28;90291;-70
2022/03/09 08:49:57;;;;;;;78.28;54.58;;;19.90;42.10;;;;;;4911361;28;96154;-74
2022/03/09 08:52:23;;;;;;;79.47;54.97;;;19.90;42.00;;;;;;4915230;28;90411;-74
2022/03/09 08:54:53;;;;;;;77.13;55.05;;;19.90;41.50;;;;;;4915898;28;91011;-74
2022/03/09 08:57:20;;;;;;;77.53;55.85;;;19.90;41.10;;;;;;4925873;28;95303;-73
2022/03/09 08:59:46;;;;;;;75.80;55.75;;;19.90;40.70;;;;;;4933651;28;92678;-73
2022/03/09 09:02:12;;;;;;;79.55;56.20;;;19.90;40.60;;;;;;4922043;28;92492;-73
2022/03/09 09:04:38;;;;;;;77.60;56.30;;;19.80;40.40;;;;;;4901223;28;91417;-72
2022/03/09 09:07:04;;;;;;;77.60;55.75;;;19.80;40.40;;;;;;4915272;28;90078;-73
2022/03/09 09:09:29;;;;;;;74.13;55.38;;;19.80;40.50;;;;;;4909628;28;92571;-73
2022/03/09 09:11:55;;;;;;;73.50;55.38;;;19.70;40.70;;;;;;4907868;28;90443;-73
2022/03/09 09:14:21;;;;;;;80.22;55.65;;;19.70;41.50;;;;;;4901083;28;92785;-73
2022/03/09 09:16:48;;;;;;;93.07;62.85;;;19.70;41.10;;;;;;4910715;28;90570;-72
2022/03/09 09:19:13;;;;;;;89.85;60.72;;;19.70;41.20;;;;;;4905533;28;92335;-73
2022/03/09 09:21:39;;;;;;;87.15;59.88;;;19.70;41.10;;;;;;4904994;28;89894;-72
2022/03/09 09:24:05;;;;;;;83.95;59.50;;;19.60;40.90;;;;;;4904930;28;91637;-73
2022/03/09 09:26:31;;;;;;;85.70;59.10;;;19.60;40.60;;;;;;4910130;28;89683;-71
2022/03/09 09:28:57;;;;;;;84.82;58.83;;;19.50;40.50;;;;;;4913720;28;90513;-73
2022/03/09 09:31:22;;;;;;;83.03;58.92;;;19.50;40.60;;;;;;4918779;28;89832;-73
2022/03/09 09:33:48;;;;;;;84.40;58.33;;;19.50;40.60;;;;;;4909803;28;91288;-72
2022/03/09 09:36:15;;;;;;;81.53;57.97;;;19.50;40.80;;;;;;4903203;28;90182;-72
2022/03/09 09:38:41;;;;;;;84.82;57.72;;;19.50;40.90;;;;;;4911011;28;91103;-73
2022/03/09 09:41:10;;;;;;;82.85;57.85;;;19.50;41.00;;;;;;4908052;28;94976;-75
2022/03/09 09:43:38;;;;;;;81.63;57.60;;;19.60;41.20;;;;;;4901462;28;92416;-73
2022/03/09 09:46:04;;;;;;;80.68;57.50;;;19.70;41.40;;;;;;4897683;28;91821;-72
2022/03/09 09:48:30;;;;;;;80.50;57.05;;;19.70;41.60;;;;;;4907850;28;91790;-72
2022/03/09 09:50:56;;;;;;;81.63;57.65;;;19.80;41.70;;;;;;4909781;28;89256;-73
2022/03/09 09:53:23;;;;;;;81.85;56.95;;;19.90;41.80;;;;;;4903010;28;90967;-73
2022/03/09 09:55:49;;;;;;;80.35;56.67;;;19.90;41.90;;;;;;4889559;28;92980;-72
2022/03/09 09:58:19;;;;;;;80.88;56.45;;;20.00;41.80;;;;;;4892885;28;92181;-72
2022/03/09 10:00:45;;;;;;;80.07;56.45;;;20.00;41.80;;;;;;4891322;28;92185;-73
2022/03/09 10:03:11;;;;;;;78.15;55.75;;;20.10;41.80;;;;;;4898247;28;91955;-72
2022/03/09 10:05:37;;;;;;;78.80;56.83;;;20.20;41.90;;;;;;4919994;28;91304;-71
2022/03/09 10:08:03;;;;;;;79.28;56.72;;;20.20;41.90;;;;;;4921026;28;90781;-72
2022/03/09 10:10:41;;;;;;;79.97;56.28;;;20.20;41.70;;;;;;4901225;28;93667;-72
2022/03/09 10:13:21;;;;;;;78.72;55.85;;;20.30;41.40;;;;;;4904427;28;91083;-72
2022/03/09 10:16:18;;;;;;;75.83;55.47;;;20.30;41.10;;;;;;4888741;28;94986;-72
2022/03/09 10:18:56;;;;;;;79.70;56.45;;;20.30;40.90;;;;;;4906876;28;90493;-73
2022/03/09 10:21:25;;;;;;;77.03;55.65;;;20.40;40.90;;;;;;4898417;28;91949;-72
2022/03/09 10:24:08;;;;;;;77.50;55.83;;;20.40;40.60;;;;;;4895401;28;91464;-73
2022/03/09 10:26:39;;;;;;;78.30;55.88;;;20.40;40.60;;;;;;4902722;28;90367;-72
2022/03/09 10:29:07;;;;;;;76.90;55.85;;;20.40;40.50;;;;;;4900508;28;92557;-73
2022/03/09 10:31:40;;;;;;;75.03;55.15;;;20.40;40.70;;;;;;4892288;28;90942;-73
2022/03/09 10:34:24;;;;;;;77.97;55.67;;;20.50;41.00;;;;;;4911011;28;90218;-73
2022/03/09 10:37:02;;;;;;;80.93;55.22;;;20.50;41.20;;;;;;4911891;28;90717;-73
2022/03/09 10:39:37;;;;;;;76.00;55.30;;;20.50;41.60;;;;;;4925255;28;90604;-73
2022/03/09 10:42:05;;;;;;;76.80;55.38;;;20.50;41.60;;;;;;4905192;28;93239;-72
2022/03/09 10:44:44;;;;;;;81.30;55.70;;;20.50;41.70;;;;;;4903472;28;90250;-72
2022/03/09 10:47:10;;;;;;;76.15;55.30;;;20.60;41.90;;;;;;4909638;28;96557;-74
2022/03/09 10:49:36;;;;;;;79.38;54.97;;;20.50;41.80;;;;;;4905137;28;92402;-73
2022/03/09 10:52:02;;;;;;;75.07;54.75;;;20.50;41.80;;;;;;4909032;28;97241;-75
2022/03/09 10:54:30;;;;;;;76.22;54.70;;;20.60;41.90;;;;;;4912731;28;89872;-74
2022/03/09 10:57:10;;;;;;;75.72;54.63;;;20.60;42.00;;;;;;4892016;28;92081;-75
2022/03/09 10:59:47;;;;;;;76.68;54.97;;;20.50;41.90;;;;;;4907310;28;90309;-72
2022/03/09 11:02:15;;;;;;;76.82;54.90;;;20.50;42.00;;;;;;4909383;28;93522;-73
2022/03/09 11:04:41;;;;;;;73.97;54.40;;;20.60;41.90;;;;;;4923915;28;89993;-75
2022/03/09 11:07:09;;;;;;;74.93;54.40;;;20.50;41.70;;;;;;4908822;28;89815;-72
2022/03/09 11:09:36;;;;;;;74.78;54.30;;;20.50;41.60;;;;;;4919784;28;90508;-74
2022/03/09 11:12:02;;;;;;;73.32;54.10;;;20.60;41.70;;;;;;4904687;28;90591;-72
2022/03/09 11:14:29;;;;;;;73.78;54.35;;;20.50;41.60;;;;;;4898103;28;92201;-71
2022/03/09 11:16:57;;;;;;;76.00;54.25;;;20.50;41.50;;;;;;4915002;28;90091;-73
2022/03/09 11:19:24;;;;;;;74.20;53.80;;;20.50;41.50;;;;;;4903789;28;89683;-71
2022/03/09 11:21:50;;;;;;;75.72;54.42;;;20.50;41.40;;;;;;4906510;28;93247;-72
2022/03/09 11:24:18;;;;;;;74.00;53.95;;;20.50;41.40;;;;;;4910667;28;89756;-71
2022/03/09 11:26:50;;;;;;;74.10;54.25;;;20.50;41.40;;;;;;4907007;28;89849;-71
2022/03/09 11:29:28;;;;;;;76.55;53.65;;;20.50;41.30;;;;;;4907234;28;90091;-72
2022/03/09 11:31:54;;;;;;;80.35;54.60;;;20.50;41.40;;;;;;4903980;28;91060;-72
2022/03/09 11:34:44;;;;;;;73.50;54.42;;;20.50;41.40;;;;;;4906660;28;90213;-72
2022/03/09 11:37:15;;;;;;;75.10;54.75;;;20.50;41.30;;;;;;4932076;28;90684;-72
2022/03/09 11:40:08;;;;;;;73.95;54.35;;;20.60;41.30;;;;;;4912895;28;91361;-72
2022/03/09 11:42:35;;;;;;;76.75;54.40;;;20.60;41.40;;;;;;4921276;28;93744;-73
2022/03/09 11:45:22;;;;;;;75.05;54.40;;;20.60;41.50;;;;;;4905554;28;90331;-72
2022/03/09 11:47:59;;;;;;;74.75;53.90;;;20.60;41.40;;;;;;4912598;28;90079;-73
2022/03/09 11:50:26;;;;;;;74.53;53.88;;;20.70;41.40;;;;;;4909835;28;92044;-72
2022/03/09 11:53:04;;;;;;;77.03;53.90;;;20.70;41.40;;;;;;4916859;28;90817;-73
2022/03/09 11:55:30;;;;;;;74.07;54.08;;;20.70;41.40;;;;;;4912420;28;90412;-72
2022/03/09 11:57:56;;;;;;;76.15;54.10;;;20.80;41.50;;;;;;4916033;28;89124;-73
2022/03/09 12:00:22;;;;;;;74.93;53.45;;;20.80;41.60;;;;;;4904545;28;90236;-73
2022/03/09 12:02:56;;;;;;;73.90;53.75;;;20.80;41.70;;;;;;4906885;28;91199;-73
2022/03/09 12:05:34;;;;;;;70.43;53.05;;;20.80;41.80;;;;;;4911805;28;91998;-74
2022/03/09 12:08:10;;;;;;;76.40;53.63;;;20.80;41.80;;;;;;4912121;28;94070;-72
2022/03/09 12:10:46;;;;;;;72.53;53.38;;;20.80;41.80;;;;;;4910086;28;90160;-72
2022/03/09 12:13:20;;;;;;;73.32;53.58;;;20.80;42.30;;;;;;4907106;28;94338;-71
2022/03/09 12:16:12;;;;;;;69.88;53.22;;;20.80;42.10;;;;;;4916384;28;90209;-72
2022/03/09 12:18:40;;;;;;;70.53;53.13;;;20.80;42.10;;;;;;4931767;28;89993;-72
2022/03/09 12:21:12;;;;;;;73.45;53.45;;;20.80;42.20;;;;;;4913185;28;91905;-73
2022/03/09 12:24:17;;;;;;;70.30;53.10;;;20.80;42.30;;;;;;4919667;28;89558;-72
2022/03/09 12:26:44;;;;;;;75.03;53.35;;;20.90;42.40;;;;;;4908796;28;90577;-73
2022/03/09 12:29:21;;;;;;;76.55;53.63;;;20.90;42.40;;;;;;4916966;28;90879;-74